createdAt,value
2022-08-28T06:46:41.275Z,3.33
2022-08-28T06:49:09.159Z,4.03
2022-08-28T06:51:36.518Z,3.78
2022-08-28T06:54:05.162Z,4.00
2022-08-28T06:56:33.488Z,4.65
2022-08-28T06:59:00.818Z,4.15
2022-08-28T07:01:33.159Z,3.75
2022-08-28T07:04:09.129Z,3.40
2022-08-28T07:06:53.878Z,3.75
2022-08-28T07:09:24.389Z,3.75
2022-08-28T07:11:52.569Z,6.17
2022-08-28T07:14:19.844Z,6.60
2022-08-28T07:16:47.387Z,6.88
2022-08-28T07:19:17.096Z,6.57
2022-08-28T07:21:46.652Z,8.20
2022-08-28T07:24:16.472Z,6.78
2022-08-28T07:26:46.264Z,7.28
2022-08-28T07:29:14.460Z,7.28
2022-08-28T07:31:47.504Z,8.53
2022-08-28T07:34:16.218Z,7.45
2022-08-28T07:36:44.738Z,7.90
2022-08-28T07:39:15.102Z,6.68
2022-08-28T07:41:43.228Z,7.68
2022-08-28T07:44:32.748Z,7.18
2022-08-28T07:47:05.866Z,7.13
2022-08-28T07:49:35.257Z,7.35
2022-08-28T07:52:05.068Z,8.38
2022-08-28T07:54:33.764Z,7.10
2022-08-28T07:59:36.573Z,7.57
2022-08-28T08:02:05.964Z,7.68
2022-08-28T08:04:33.970Z,7.75
2022-08-28T08:07:04.076Z,8.18
2022-08-28T08:09:31.456Z,7.35
2022-08-28T08:12:00.304Z,7.50
2022-08-28T08:14:28.061Z,6.68
2022-08-28T08:16:55.520Z,6.85
2022-08-28T18:53:38.873Z,3.13
2022-08-28T18:56:10.604Z,3.95
2022-08-28T18:58:44.062Z,3.50
2022-08-28T19:01:11.383Z,3.70
2022-08-28T19:03:38.704Z,4.13
2022-08-28T19:06:07.286Z,3.58
2022-08-28T19:08:36.946Z,2.90
2022-08-28T19:11:14.213Z,3.03
2022-08-28T19:13:42.207Z,2.90
2022-08-28T19:16:11.817Z,2.90
2022-08-28T19:18:39.193Z,2.70
2022-08-28T19:21:19.747Z,2.85
2022-08-28T19:23:56.246Z,2.73
2022-08-28T19:26:25.970Z,3.00
2022-08-28T19:28:54.489Z,2.90
2022-08-28T19:31:23.300Z,2.90
2022-08-28T19:33:51.121Z,3.20
2022-08-28T19:36:18.741Z,3.20
2022-08-28T19:38:47.022Z,3.28
2022-08-28T19:41:15.123Z,3.50
2022-08-28T19:43:42.998Z,3.10
2022-08-28T19:46:19.640Z,2.50
2022-08-28T19:48:50.402Z,2.67
2022-08-28T19:51:23.287Z,3.00
2022-08-28T19:53:58.184Z,2.88
2022-08-28T19:56:29.167Z,3.00
2022-08-28T19:58:59.345Z,3.15
2022-08-28T20:01:30.231Z,3.47
2022-08-28T20:03:59.764Z,3.17
2022-08-28T20:06:30.358Z,3.60
2022-08-28T20:08:57.784Z,3.30
2022-08-28T20:11:25.439Z,3.67
2022-08-28T20:14:06.271Z,3.25
2022-08-28T20:16:39.904Z,3.28
2022-08-28T20:19:10.578Z,3.45
2022-08-28T20:21:41.953Z,3.25
2022-08-28T20:24:14.102Z,3.95
2022-08-28T20:26:41.905Z,3.25
2022-08-28T20:29:10.923Z,3.55
2022-08-28T20:31:41.495Z,3.67
2022-08-28T20:34:11.686Z,4.22
2022-08-28T20:36:40.343Z,3.73
2022-08-28T20:39:09.523Z,4.05
2022-08-28T20:41:40.534Z,3.60
2022-08-28T20:44:12.814Z,3.67
2022-08-28T20:46:42.376Z,3.97
2022-08-28T20:49:12.927Z,3.30
2022-08-28T20:51:53.195Z,3.20
2022-08-28T20:54:37.716Z,3.70
2022-08-28T20:57:09.618Z,3.15
2022-08-28T20:59:40.688Z,3.58
2022-08-28T21:02:19.566Z,3.40
2022-08-28T21:04:48.368Z,3.97
2022-08-28T21:07:21.033Z,3.95
2022-08-28T21:10:07.110Z,3.80
2022-08-28T21:12:37.906Z,3.88
2022-08-28T21:15:12.689Z,4.47
2022-08-28T21:17:41.806Z,4.15
2022-08-28T21:20:13.976Z,4.22
2022-08-28T21:22:42.187Z,4.13
2022-08-28T21:25:10.940Z,4.30
2022-08-28T21:27:40.422Z,4.33
2022-08-28T21:30:11.162Z,4.18
2022-08-28T21:32:38.611Z,4.10
2022-08-28T21:35:09.471Z,4.30
2022-08-28T21:37:40.163Z,4.13
2022-08-28T21:40:11.279Z,3.75
2022-08-28T21:42:38.866Z,4.60
2022-08-28T21:45:11.697Z,3.95
2022-08-28T21:47:41.514Z,4.20
2022-08-28T21:50:11.875Z,4.25
2022-08-28T21:52:40.560Z,3.58
2022-08-28T21:55:13.998Z,3.93
2022-08-28T21:57:42.880Z,4.05
2022-08-28T22:00:20.227Z,4.40
2022-08-28T22:02:48.527Z,3.97
2022-08-28T22:05:17.278Z,3.70
2022-08-28T22:07:45.155Z,3.75
2022-08-28T22:10:12.737Z,4.10
2022-08-28T22:12:40.051Z,3.90
2022-08-28T22:15:07.813Z,4.63
2022-08-28T22:17:35.150Z,3.60
2022-08-28T22:20:03.473Z,3.60
2022-08-28T22:22:49.577Z,3.47
2022-08-28T22:25:17.950Z,3.83
2022-08-28T22:27:45.168Z,3.75
2022-08-28T22:30:13.307Z,4.03
2022-08-28T22:32:40.690Z,4.32
2022-08-28T22:35:09.574Z,3.58
2022-08-28T22:37:37.844Z,3.38
2022-08-28T22:40:13.180Z,3.78
2022-08-28T22:42:41.400Z,3.72
2022-08-28T22:45:09.754Z,3.58
2022-08-28T22:47:37.040Z,3.90
2022-08-28T22:50:06.512Z,3.67
2022-08-28T22:52:33.844Z,3.65
2022-08-28T22:55:03.879Z,3.72
2022-08-28T22:57:34.215Z,4.00
2022-08-28T23:00:03.997Z,3.45
2022-08-28T23:02:31.369Z,4.10
2022-08-28T23:04:58.933Z,4.07
2022-08-28T23:07:26.378Z,4.10
2022-08-28T23:09:53.744Z,4.20
2022-08-28T23:12:21.300Z,4.03
2022-08-28T23:14:48.956Z,4.20
2022-08-28T23:17:19.997Z,4.40
2022-08-28T23:19:48.319Z,4.20
2022-08-28T23:22:17.431Z,4.50
2022-08-28T23:24:47.010Z,4.72
2022-08-28T23:27:35.475Z,4.05
2022-08-28T23:30:06.668Z,4.78
2022-08-28T23:32:34.292Z,5.18
2022-08-28T23:35:01.787Z,4.50
2022-08-28T23:37:29.190Z,4.60
2022-08-28T23:40:13.226Z,4.50
2022-08-28T23:42:43.128Z,4.75
2022-08-28T23:45:12.935Z,4.60
2022-08-28T23:47:41.354Z,4.97
2022-08-28T23:50:18.585Z,5.43
2022-08-28T23:52:47.544Z,5.30
2022-08-28T23:55:19.162Z,4.40
2022-08-28T23:57:47.532Z,5.35
